sensor_id;sensor_type;location;lat;lon;timestamp;P1;durP1;ratioP1;P2;durP2;ratioP2
39896;SDS011;25567;48.276;14.242;2023-02-01T00:00:09;8.43;;;3.33;;
39896;SDS011;25567;48.276;14.242;2023-02-01T00:02:38;6.50;;;3.05;;
39896;SDS011;25567;48.276;14.242;2023-02-01T00:05:07;10.23;;;3.40;;
39896;SDS011;25567;48.276;14.242;2023-02-01T00:07:35;9.95;;;3.58;;
39896;SDS011;25567;48.276;14.242;2023-02-01T00:10:07;7.32;;;3.15;;
39896;SDS011;25567;48.276;14.242;2023-02-01T00:12:35;13.52;;;3.70;;
39896;SDS011;25567;48.276;14.242;2023-02-01T00:15:04;6.75;;;3.00;;
39896;SDS011;25567;48.276;14.242;2023-02-01T00:17:31;8.57;;;2.67;;
39896;SDS011;25567;48.276;14.242;2023-02-01T00:19:59;6.72;;;2.92;;
39896;SDS011;25567;48.276;14.242;2023-02-01T00:22:27;10.65;;;3.53;;
39896;SDS011;25567;48.276;14.242;2023-02-01T00:24:54;6.05;;;2.75;;
39896;SDS011;25567;48.276;14.242;2023-02-01T00:27:23;6.68;;;2.55;;
39896;SDS011;25567;48.276;14.242;2023-02-01T00:29:51;6.93;;;2.80;;
39896;SDS011;25567;48.276;14.242;2023-02-01T00:32:22;5.53;;;2.63;;
39896;SDS011;25567;48.276;14.242;2023-02-01T00:34:49;8.75;;;3.05;;
39896;SDS011;25567;48.276;14.242;2023-02-01T00:37:17;6.50;;;3.13;;
39896;SDS011;25567;48.276;14.242;2023-02-01T00:39:45;6.20;;;2.53;;
39896;SDS011;25567;48.276;14.242;2023-02-01T00:42:12;6.10;;;2.40;;
39896;SDS011;25567;48.276;14.242;2023-02-01T00:44:40;6.90;;;2.40;;
39896;SDS011;25567;48.276;14.242;2023-02-01T00:47:07;6.47;;;2.72;;
39896;SDS011;25567;48.276;14.242;2023-02-01T00:49:36;8.98;;;2.45;;
39896;SDS011;25567;48.276;14.242;2023-02-01T00:52:03;12.63;;;2.92;;
39896;SDS011;25567;48.276;14.242;2023-02-01T00:54:32;6.43;;;3.78;;
39896;SDS011;25567;48.276;14.242;2023-02-01T00:57:00;5.72;;;2.50;;
39896;SDS011;25567;48.276;14.242;2023-02-01T00:59:27;9.75;;;2.33;;
39896;SDS011;25567;48.276;14.242;2023-02-01T01:01:56;5.25;;;2.70;;
39896;SDS011;25567;48.276;14.242;2023-02-01T01:04:24;9.60;;;3.30;;
39896;SDS011;25567;48.276;14.242;2023-02-01T01:06:53;5.28;;;2.65;;
39896;SDS011;25567;48.276;14.242;2023-02-01T01:09:21;5.75;;;2.55;;
39896;SDS011;25567;48.276;14.242;2023-02-01T01:11:48;7.00;;;3.05;;
39896;SDS011;25567;48.276;14.242;2023-02-01T01:14:18;8.20;;;2.95;;
39896;SDS011;25567;48.276;14.242;2023-02-01T01:16:46;7.43;;;3.63;;
39896;SDS011;25567;48.276;14.242;2023-02-01T01:19:13;7.05;;;2.72;;
39896;SDS011;25567;48.276;14.242;2023-02-01T01:21:41;8.95;;;2.85;;
39896;SDS011;25567;48.276;14.242;2023-02-01T01:24:10;8.10;;;3.33;;
39896;SDS011;25567;48.276;14.242;2023-02-01T01:26:37;5.50;;;2.33;;
39896;SDS011;25567;48.276;14.242;2023-02-01T01:29:04;5.68;;;2.53;;
39896;SDS011;25567;48.276;14.242;2023-02-01T01:31:31;6.53;;;2.85;;
39896;SDS011;25567;48.276;14.242;2023-02-01T01:33:59;6.70;;;2.78;;
39896;SDS011;25567;48.276;14.242;2023-02-01T01:36:27;6.90;;;2.97;;
39896;SDS011;25567;48.276;14.242;2023-02-01T01:38:58;5.03;;;2.70;;
39896;SDS011;25567;48.276;14.242;2023-02-01T01:41:30;11.80;;;2.63;;
39896;SDS011;25567;48.276;14.242;2023-02-01T01:43:59;5.13;;;2.50;;
39896;SDS011;25567;48.276;14.242;2023-02-01T01:46:30;7.78;;;2.60;;
39896;SDS011;25567;48.276;14.242;2023-02-01T01:51:38;8.18;;;2.50;;
39896;SDS011;25567;48.276;14.242;2023-02-01T01:54:12;5.28;;;2.55;;
39896;SDS011;25567;48.276;14.242;2023-02-01T01:56:46;8.23;;;2.80;;
39896;SDS011;25567;48.276;14.242;2023-02-01T01:59:19;6.97;;;2.80;;
39896;SDS011;25567;48.276;14.242;2023-02-01T02:01:48;5.93;;;2.30;;
39896;SDS011;25567;48.276;14.242;2023-02-01T02:04:16;5.60;;;2.63;;
39896;SDS011;25567;48.276;14.242;2023-02-01T02:06:49;5.78;;;2.20;;
39896;SDS011;25567;48.276;14.242;2023-02-01T02:09:24;4.10;;;2.03;;
39896;SDS011;25567;48.276;14.242;2023-02-01T02:11:52;4.22;;;2.25;;
39896;SDS011;25567;48.276;14.242;2023-02-01T02:14:19;2.85;;;1.35;;
39896;SDS011;25567;48.276;14.242;2023-02-01T02:19:58;2.55;;;1.40;;
39896;SDS011;25567;48.276;14.242;2023-02-01T02:42:07;4.22;;;1.80;;
39896;SDS011;25567;48.276;14.242;2023-02-01T02:44:56;3.65;;;1.70;;
39896;SDS011;25567;48.276;14.242;2023-02-01T02:47:44;4.30;;;1.98;;
39896;SDS011;25567;48.276;14.242;2023-02-01T02:53:12;6.43;;;2.33;;
39896;SDS011;25567;48.276;14.242;2023-02-01T02:55:58;6.70;;;1.85;;
39896;SDS011;25567;48.276;14.242;2023-02-01T02:58:45;4.50;;;2.08;;
39896;SDS011;25567;48.276;14.242;2023-02-01T03:01:29;6.38;;;2.00;;
39896;SDS011;25567;48.276;14.242;2023-02-01T03:04:14;7.22;;;2.13;;
39896;SDS011;25567;48.276;14.242;2023-02-01T03:06:44;5.53;;;2.38;;
39896;SDS011;25567;48.276;14.242;2023-02-01T03:09:13;6.28;;;2.00;;
39896;SDS011;25567;48.276;14.242;2023-02-01T03:11:49;4.28;;;2.33;;
39896;SDS011;25567;48.276;14.242;2023-02-01T03:14:38;4.68;;;2.30;;
39896;SDS011;25567;48.276;14.242;2023-02-01T03:17:11;5.75;;;2.55;;
39896;SDS011;25567;48.276;14.242;2023-02-01T03:19:45;4.45;;;2.25;;
39896;SDS011;25567;48.276;14.242;2023-02-01T03:22:17;6.57;;;2.42;;
39896;SDS011;25567;48.276;14.242;2023-02-01T03:24:51;8.18;;;2.80;;
39896;SDS011;25567;48.276;14.242;2023-02-01T03:27:23;5.47;;;2.08;;
39896;SDS011;25567;48.276;14.242;2023-02-01T03:32:48;5.28;;;2.55;;
39896;SDS011;25567;48.276;14.242;2023-02-01T03:38:08;6.55;;;2.50;;
39896;SDS011;25567;48.276;14.242;2023-02-01T03:41:08;6.93;;;2.20;;
39896;SDS011;25567;48.276;14.242;2023-02-01T03:43:50;4.82;;;2.45;;
39896;SDS011;25567;48.276;14.242;2023-02-01T03:46:24;7.43;;;2.38;;
39896;SDS011;25567;48.276;14.242;2023-02-01T03:49:02;6.20;;;2.88;;
39896;SDS011;25567;48.276;14.242;2023-02-01T03:51:33;5.75;;;2.63;;
39896;SDS011;25567;48.276;14.242;2023-02-01T03:54:03;6.80;;;2.28;;
39896;SDS011;25567;48.276;14.242;2023-02-01T03:56:36;6.63;;;2.17;;
39896;SDS011;25567;48.276;14.242;2023-02-01T03:59:04;4.72;;;2.50;;
39896;SDS011;25567;48.276;14.242;2023-02-01T04:01:32;5.38;;;2.30;;
39896;SDS011;25567;48.276;14.242;2023-02-01T04:04:00;5.55;;;2.63;;
39896;SDS011;25567;48.276;14.242;2023-02-01T04:06:28;6.55;;;2.35;;
39896;SDS011;25567;48.276;14.242;2023-02-01T04:08:56;4.30;;;1.90;;
39896;SDS011;25567;48.276;14.242;2023-02-01T04:11:24;5.15;;;2.35;;
39896;SDS011;25567;48.276;14.242;2023-02-01T04:13:54;7.55;;;2.20;;
39896;SDS011;25567;48.276;14.242;2023-02-01T04:16:21;4.25;;;1.98;;
39896;SDS011;25567;48.276;14.242;2023-02-01T04:18:48;8.75;;;2.22;;
39896;SDS011;25567;48.276;14.242;2023-02-01T04:21:15;5.40;;;2.75;;
39896;SDS011;25567;48.276;14.242;2023-02-01T04:23:43;6.57;;;2.08;;
39896;SDS011;25567;48.276;14.242;2023-02-01T04:26:10;4.00;;;2.00;;
39896;SDS011;25567;48.276;14.242;2023-02-01T04:28:39;6.85;;;2.33;;
39896;SDS011;25567;48.276;14.242;2023-02-01T04:31:06;5.03;;;2.28;;
39896;SDS011;25567;48.276;14.242;2023-02-01T04:33:33;5.00;;;1.95;;
39896;SDS011;25567;48.276;14.242;2023-02-01T04:36:02;6.00;;;2.10;;
39896;SDS011;25567;48.276;14.242;2023-02-01T04:38:29;10.40;;;1.90;;
39896;SDS011;25567;48.276;14.242;2023-02-01T04:40:59;4.82;;;2.20;;
39896;SDS011;25567;48.276;14.242;2023-02-01T04:43:28;6.65;;;2.05;;
39896;SDS011;25567;48.276;14.242;2023-02-01T04:45:56;5.07;;;2.10;;
39896;SDS011;25567;48.276;14.242;2023-02-01T04:48:24;6.68;;;2.20;;
39896;SDS011;25567;48.276;14.242;2023-02-01T04:50:54;4.78;;;1.88;;
39896;SDS011;25567;48.276;14.242;2023-02-01T04:53:21;4.85;;;2.42;;
39896;SDS011;25567;48.276;14.242;2023-02-01T04:55:48;4.90;;;2.13;;
39896;SDS011;25567;48.276;14.242;2023-02-01T04:58:18;3.15;;;2.00;;
39896;SDS011;25567;48.276;14.242;2023-02-01T05:00:46;6.10;;;2.50;;
39896;SDS011;25567;48.276;14.242;2023-02-01T05:03:14;5.22;;;2.63;;
39896;SDS011;25567;48.276;14.242;2023-02-01T05:05:43;7.82;;;2.78;;
39896;SDS011;25567;48.276;14.242;2023-02-01T05:08:11;8.35;;;2.42;;
39896;SDS011;25567;48.276;14.242;2023-02-01T05:10:39;6.45;;;2.25;;
39896;SDS011;25567;48.276;14.242;2023-02-01T05:13:08;6.00;;;2.60;;
39896;SDS011;25567;48.276;14.242;2023-02-01T05:15:53;7.60;;;3.03;;
39896;SDS011;25567;48.276;14.242;2023-02-01T05:18:20;5.57;;;2.55;;
39896;SDS011;25567;48.276;14.242;2023-02-01T05:20:47;3.72;;;2.10;;
39896;SDS011;25567;48.276;14.242;2023-02-01T05:23:14;5.03;;;2.15;;
39896;SDS011;25567;48.276;14.242;2023-02-01T05:25:43;3.97;;;2.15;;
39896;SDS011;25567;48.276;14.242;2023-02-01T05:28:10;3.95;;;2.13;;
39896;SDS011;25567;48.276;14.242;2023-02-01T05:30:38;7.97;;;2.53;;
39896;SDS011;25567;48.276;14.242;2023-02-01T05:33:07;8.18;;;2.38;;
39896;SDS011;25567;48.276;14.242;2023-02-01T05:35:35;5.53;;;2.50;;
39896;SDS011;25567;48.276;14.242;2023-02-01T05:38:03;7.57;;;2.42;;
39896;SDS011;25567;48.276;14.242;2023-02-01T05:40:33;8.05;;;2.88;;
39896;SDS011;25567;48.276;14.242;2023-02-01T05:43:01;6.05;;;2.83;;
39896;SDS011;25567;48.276;14.242;2023-02-01T05:45:29;4.43;;;2.40;;
39896;SDS011;25567;48.276;14.242;2023-02-01T05:47:57;5.45;;;2.90;;
39896;SDS011;25567;48.276;14.242;2023-02-01T05:50:25;4.70;;;2.28;;
39896;SDS011;25567;48.276;14.242;2023-02-01T05:52:54;6.47;;;2.45;;
39896;SDS011;25567;48.276;14.242;2023-02-01T05:55:20;5.90;;;2.90;;
39896;SDS011;25567;48.276;14.242;2023-02-01T05:57:50;6.32;;;3.40;;
39896;SDS011;25567;48.276;14.242;2023-02-01T06:00:17;5.45;;;2.67;;
39896;SDS011;25567;48.276;14.242;2023-02-01T06:02:47;9.45;;;3.40;;
39896;SDS011;25567;48.276;14.242;2023-02-01T06:05:14;6.85;;;3.22;;
39896;SDS011;25567;48.276;14.242;2023-02-01T06:07:44;7.10;;;3.17;;
39896;SDS011;25567;48.276;14.242;2023-02-01T06:10:12;6.28;;;3.20;;
39896;SDS011;25567;48.276;14.242;2023-02-01T06:12:41;7.70;;;3.17;;
39896;SDS011;25567;48.276;14.242;2023-02-01T06:15:09;5.38;;;2.25;;
39896;SDS011;25567;48.276;14.242;2023-02-01T06:17:36;6.95;;;3.65;;
39896;SDS011;25567;48.276;14.242;2023-02-01T06:20:04;7.85;;;3.28;;
39896;SDS011;25567;48.276;14.242;2023-02-01T06:22:35;6.97;;;3.45;;
39896;SDS011;25567;48.276;14.242;2023-02-01T06:25:03;5.57;;;3.20;;
39896;SDS011;25567;48.276;14.242;2023-02-01T06:27:32;12.57;;;3.83;;
39896;SDS011;25567;48.276;14.242;2023-02-01T06:29:59;7.50;;;3.42;;
39896;SDS011;25567;48.276;14.242;2023-02-01T06:32:28;9.93;;;3.67;;
39896;SDS011;25567;48.276;14.242;2023-02-01T06:34:56;5.78;;;3.10;;
39896;SDS011;25567;48.276;14.242;2023-02-01T06:37:24;7.07;;;3.35;;
39896;SDS011;25567;48.276;14.242;2023-02-01T06:39:52;6.32;;;3.22;;
39896;SDS011;25567;48.276;14.242;2023-02-01T06:42:23;10.43;;;3.58;;
39896;SDS011;25567;48.276;14.242;2023-02-01T06:44:50;6.28;;;2.80;;
39896;SDS011;25567;48.276;14.242;2023-02-01T06:47:18;7.70;;;3.53;;
39896;SDS011;25567;48.276;14.242;2023-02-01T06:49:46;5.95;;;3.08;;
39896;SDS011;25567;48.276;14.242;2023-02-01T06:52:13;7.72;;;3.17;;
39896;SDS011;25567;48.276;14.242;2023-02-01T06:54:41;5.53;;;3.10;;
39896;SDS011;25567;48.276;14.242;2023-02-01T06:57:10;10.18;;;3.95;;
39896;SDS011;25567;48.276;14.242;2023-02-01T06:59:38;9.05;;;3.80;;
39896;SDS011;25567;48.276;14.242;2023-02-01T07:02:05;13.98;;;4.88;;
39896;SDS011;25567;48.276;14.242;2023-02-01T07:04:33;8.48;;;2.95;;
39896;SDS011;25567;48.276;14.242;2023-02-01T07:07:00;8.00;;;3.53;;
39896;SDS011;25567;48.276;14.242;2023-02-01T07:09:28;9.07;;;4.38;;
39896;SDS011;25567;48.276;14.242;2023-02-01T07:11:57;10.88;;;3.80;;
39896;SDS011;25567;48.276;14.242;2023-02-01T07:14:24;10.93;;;3.95;;
39896;SDS011;25567;48.276;14.242;2023-02-01T07:16:53;6.65;;;3.30;;
39896;SDS011;25567;48.276;14.242;2023-02-01T07:19:20;11.88;;;4.07;;
39896;SDS011;25567;48.276;14.242;2023-02-01T07:21:49;6.82;;;3.45;;
39896;SDS011;25567;48.276;14.242;2023-02-01T07:24:16;9.48;;;3.45;;
39896;SDS011;25567;48.276;14.242;2023-02-01T07:26:44;10.07;;;3.08;;
39896;SDS011;25567;48.276;14.242;2023-02-01T07:29:14;8.10;;;3.33;;
39896;SDS011;25567;48.276;14.242;2023-02-01T07:31:43;5.03;;;2.60;;
39896;SDS011;25567;48.276;14.242;2023-02-01T07:34:11;7.20;;;2.85;;
39896;SDS011;25567;48.276;14.242;2023-02-01T07:36:38;7.18;;;2.88;;
39896;SDS011;25567;48.276;14.242;2023-02-01T07:39:06;5.93;;;2.88;;
39896;SDS011;25567;48.276;14.242;2023-02-01T07:41:35;6.85;;;3.00;;
39896;SDS011;25567;48.276;14.242;2023-02-01T07:44:03;5.38;;;2.58;;
39896;SDS011;25567;48.276;14.242;2023-02-01T07:46:30;6.18;;;2.40;;
39896;SDS011;25567;48.276;14.242;2023-02-01T07:48:58;5.80;;;2.72;;
39896;SDS011;25567;48.276;14.242;2023-02-01T07:51:27;6.45;;;2.95;;
39896;SDS011;25567;48.276;14.242;2023-02-01T07:53:56;6.00;;;2.55;;
39896;SDS011;25567;48.276;14.242;2023-02-01T07:56:26;8.55;;;2.90;;
39896;SDS011;25567;48.276;14.242;2023-02-01T07:58:54;5.75;;;2.65;;
39896;SDS011;25567;48.276;14.242;2023-02-01T08:01:23;5.50;;;2.70;;
39896;SDS011;25567;48.276;14.242;2023-02-01T08:03:54;7.72;;;2.83;;
39896;SDS011;25567;48.276;14.242;2023-02-01T08:06:26;5.95;;;2.50;;
39896;SDS011;25567;48.276;14.242;2023-02-01T08:08:58;4.18;;;2.58;;
39896;SDS011;25567;48.276;14.242;2023-02-01T08:11:30;5.32;;;2.42;;
39896;SDS011;25567;48.276;14.242;2023-02-01T08:13:59;8.70;;;2.60;;
39896;SDS011;25567;48.276;14.242;2023-02-01T08:16:28;9.85;;;2.50;;
39896;SDS011;25567;48.276;14.242;2023-02-01T08:18:57;4.70;;;2.17;;
39896;SDS011;25567;48.276;14.242;2023-02-01T08:21:26;6.32;;;2.70;;
39896;SDS011;25567;48.276;14.242;2023-02-01T08:24:05;6.05;;;2.90;;
39896;SDS011;25567;48.276;14.242;2023-02-01T08:26:32;6.82;;;2.90;;
39896;SDS011;25567;48.276;14.242;2023-02-01T08:29:01;8.80;;;2.72;;
39896;SDS011;25567;48.276;14.242;2023-02-01T08:31:32;6.47;;;2.88;;
39896;SDS011;25567;48.276;14.242;2023-02-01T08:34:00;8.00;;;2.60;;
39896;SDS011;25567;48.276;14.242;2023-02-01T08:36:32;6.15;;;2.67;;
39896;SDS011;25567;48.276;14.242;2023-02-01T08:38:59;5.53;;;2.78;;
39896;SDS011;25567;48.276;14.242;2023-02-01T08:41:29;8.43;;;2.63;;
39896;SDS011;25567;48.276;14.242;2023-02-01T08:43:58;5.95;;;2.33;;
39896;SDS011;25567;48.276;14.242;2023-02-01T08:46:27;5.10;;;2.75;;
39896;SDS011;25567;48.276;14.242;2023-02-01T08:48:56;8.43;;;2.47;;
39896;SDS011;25567;48.276;14.242;2023-02-01T08:51:23;6.03;;;2.80;;
39896;SDS011;25567;48.276;14.242;2023-02-01T08:53:51;4.45;;;2.38;;
39896;SDS011;25567;48.276;14.242;2023-02-01T08:56:20;6.65;;;2.70;;
39896;SDS011;25567;48.276;14.242;2023-02-01T08:58:48;6.47;;;3.20;;
39896;SDS011;25567;48.276;14.242;2023-02-01T09:01:17;9.68;;;2.65;;
39896;SDS011;25567;48.276;14.242;2023-02-01T09:03:46;9.82;;;2.92;;
39896;SDS011;25567;48.276;14.242;2023-02-01T09:06:14;5.38;;;2.65;;
39896;SDS011;25567;48.276;14.242;2023-02-01T09:08:43;7.25;;;2.70;;
39896;SDS011;25567;48.276;14.242;2023-02-01T09:11:13;5.50;;;2.80;;
39896;SDS011;25567;48.276;14.242;2023-02-01T09:13:43;6.18;;;2.67;;
39896;SDS011;25567;48.276;14.242;2023-02-01T09:16:10;6.20;;;2.72;;
39896;SDS011;25567;48.276;14.242;2023-02-01T09:18:39;5.53;;;2.72;;
39896;SDS011;25567;48.276;14.242;2023-02-01T09:21:27;7.97;;;2.92;;
39896;SDS011;25567;48.276;14.242;2023-02-01T09:23:56;5.85;;;2.92;;
39896;SDS011;25567;48.276;14.242;2023-02-01T09:26:23;6.72;;;2.92;;
39896;SDS011;25567;48.276;14.242;2023-02-01T09:28:58;8.90;;;3.50;;
39896;SDS011;25567;48.276;14.242;2023-02-01T09:31:29;7.95;;;3.03;;
39896;SDS011;25567;48.276;14.242;2023-02-01T09:33:57;5.82;;;2.88;;
39896;SDS011;25567;48.276;14.242;2023-02-01T09:36:25;7.93;;;3.03;;
39896;SDS011;25567;48.276;14.242;2023-02-01T09:38:57;6.93;;;2.90;;
39896;SDS011;25567;48.276;14.242;2023-02-01T09:47:18;8.48;;;3.17;;
39896;SDS011;25567;48.276;14.242;2023-02-01T09:49:53;7.97;;;2.90;;
39896;SDS011;25567;48.276;14.242;2023-02-01T09:52:26;10.10;;;3.33;;
39896;SDS011;25567;48.276;14.242;2023-02-01T09:55:01;4.32;;;2.60;;
39896;SDS011;25567;48.276;14.242;2023-02-01T09:57:42;6.63;;;2.72;;
39896;SDS011;25567;48.276;14.242;2023-02-01T10:00:27;6.40;;;3.15;;
39896;SDS011;25567;48.276;14.242;2023-02-01T10:03:00;8.25;;;2.88;;
39896;SDS011;25567;48.276;14.242;2023-02-01T10:11:04;7.03;;;2.80;;
39896;SDS011;25567;48.276;14.242;2023-02-01T10:21:50;9.30;;;3.33;;
39896;SDS011;25567;48.276;14.242;2023-02-01T10:27:02;6.38;;;2.72;;
39896;SDS011;25567;48.276;14.242;2023-02-01T10:29:53;10.13;;;3.20;;
39896;SDS011;25567;48.276;14.242;2023-02-01T10:32:29;6.95;;;2.92;;
39896;SDS011;25567;48.276;14.242;2023-02-01T10:35:02;5.50;;;3.03;;
39896;SDS011;25567;48.276;14.242;2023-02-01T10:37:39;6.95;;;2.45;;
39896;SDS011;25567;48.276;14.242;2023-02-01T10:42:54;6.20;;;3.03;;
39896;SDS011;25567;48.276;14.242;2023-02-01T10:45:27;7.75;;;3.33;;
39896;SDS011;25567;48.276;14.242;2023-02-01T10:47:57;7.88;;;3.35;;
39896;SDS011;25567;48.276;14.242;2023-02-01T10:53:20;6.47;;;3.47;;
39896;SDS011;25567;48.276;14.242;2023-02-01T10:55:54;7.13;;;2.97;;
39896;SDS011;25567;48.276;14.242;2023-02-01T10:58:26;3.90;;;1.95;;
39896;SDS011;25567;48.276;14.242;2023-02-01T11:00:57;6.35;;;1.98;;
39896;SDS011;25567;48.276;14.242;2023-02-01T11:06:18;5.18;;;1.85;;
39896;SDS011;25567;48.276;14.242;2023-02-01T11:09:10;6.15;;;1.80;;
39896;SDS011;25567;48.276;14.242;2023-02-01T11:14:15;6.32;;;1.83;;
39896;SDS011;25567;48.276;14.242;2023-02-01T11:16:47;6.32;;;2.08;;
39896;SDS011;25567;48.276;14.242;2023-02-01T11:19:16;5.43;;;1.85;;
39896;SDS011;25567;48.276;14.242;2023-02-01T11:21:44;7.25;;;2.25;;
39896;SDS011;25567;48.276;14.242;2023-02-01T11:24:22;3.67;;;1.70;;
39896;SDS011;25567;48.276;14.242;2023-02-01T11:26:55;4.63;;;2.83;;
39896;SDS011;25567;48.276;14.242;2023-02-01T11:29:26;5.63;;;2.25;;
39896;SDS011;25567;48.276;14.242;2023-02-01T11:32:01;5.75;;;2.45;;
39896;SDS011;25567;48.276;14.242;2023-02-01T11:34:33;4.63;;;2.55;;
39896;SDS011;25567;48.276;14.242;2023-02-01T11:37:18;5.95;;;2.80;;
39896;SDS011;25567;48.276;14.242;2023-02-01T11:42:56;6.97;;;3.45;;
39896;SDS011;25567;48.276;14.242;2023-02-01T11:45:26;6.57;;;3.42;;
39896;SDS011;25567;48.276;14.242;2023-02-01T11:47:57;5.97;;;3.38;;
39896;SDS011;25567;48.276;14.242;2023-02-01T11:55:51;9.27;;;3.90;;
39896;SDS011;25567;48.276;14.242;2023-02-01T12:07:00;9.55;;;3.95;;
39896;SDS011;25567;48.276;14.242;2023-02-01T12:09:49;8.48;;;3.67;;
39896;SDS011;25567;48.276;14.242;2023-02-01T12:15:18;14.73;;;3.88;;
39896;SDS011;25567;48.276;14.242;2023-02-01T12:29:08;9.43;;;3.88;;
39896;SDS011;25567;48.276;14.242;2023-02-01T12:34:53;8.38;;;3.83;;
39896;SDS011;25567;48.276;14.242;2023-02-01T12:45:50;9.13;;;2.85;;
39896;SDS011;25567;48.276;14.242;2023-02-01T12:51:28;7.05;;;2.20;;
39896;SDS011;25567;48.276;14.242;2023-02-01T12:54:03;5.97;;;2.78;;
39896;SDS011;25567;48.276;14.242;2023-02-01T12:59:16;8.45;;;2.55;;
39896;SDS011;25567;48.276;14.242;2023-02-01T13:01:53;5.47;;;2.05;;
39896;SDS011;25567;48.276;14.242;2023-02-01T13:04:28;4.95;;;2.10;;
39896;SDS011;25567;48.276;14.242;2023-02-01T13:07:14;10.48;;;2.17;;
39896;SDS011;25567;48.276;14.242;2023-02-01T13:09:47;6.38;;;2.33;;
39896;SDS011;25567;48.276;14.242;2023-02-01T13:12:19;9.70;;;2.53;;
39896;SDS011;25567;48.276;14.242;2023-02-01T13:14:54;6.97;;;2.33;;
39896;SDS011;25567;48.276;14.242;2023-02-01T13:17:27;6.22;;;2.28;;
39896;SDS011;25567;48.276;14.242;2023-02-01T13:20:05;7.80;;;1.85;;
39896;SDS011;25567;48.276;14.242;2023-02-01T13:22:47;4.20;;;1.92;;
39896;SDS011;25567;48.276;14.242;2023-02-01T13:25:26;3.83;;;1.52;;
39896;SDS011;25567;48.276;14.242;2023-02-01T13:28:04;7.78;;;1.55;;
39896;SDS011;25567;48.276;14.242;2023-02-01T13:30:42;2.33;;;1.17;;
39896;SDS011;25567;48.276;14.242;2023-02-01T13:36:29;4.63;;;1.13;;
39896;SDS011;25567;48.276;14.242;2023-02-01T13:39:21;4.95;;;1.48;;
39896;SDS011;25567;48.276;14.242;2023-02-01T13:42:15;4.13;;;1.65;;
39896;SDS011;25567;48.276;14.242;2023-02-01T13:45:03;8.45;;;1.30;;
39896;SDS011;25567;48.276;14.242;2023-02-01T13:47:40;4.10;;;1.85;;
39896;SDS011;25567;48.276;14.242;2023-02-01T13:50:20;5.93;;;1.52;;
39896;SDS011;25567;48.276;14.242;2023-02-01T13:53:02;6.93;;;2.08;;
39896;SDS011;25567;48.276;14.242;2023-02-01T13:55:44;4.90;;;2.00;;
39896;SDS011;25567;48.276;14.242;2023-02-01T13:58:20;7.10;;;1.90;;
39896;SDS011;25567;48.276;14.242;2023-02-01T14:03:59;7.07;;;2.80;;
39896;SDS011;25567;48.276;14.242;2023-02-01T14:11:50;10.77;;;3.33;;
39896;SDS011;25567;48.276;14.242;2023-02-01T14:14:37;8.98;;;3.28;;
39896;SDS011;25567;48.276;14.242;2023-02-01T14:20:14;6.95;;;2.97;;
39896;SDS011;25567;48.276;14.242;2023-02-01T14:23:02;15.25;;;3.58;;
39896;SDS011;25567;48.276;14.242;2023-02-01T14:25:32;9.68;;;3.70;;
39896;SDS011;25567;48.276;14.242;2023-02-01T14:28:01;11.65;;;3.25;;
39896;SDS011;25567;48.276;14.242;2023-02-01T14:30:40;9.02;;;3.55;;
39896;SDS011;25567;48.276;14.242;2023-02-01T14:33:18;6.93;;;3.30;;
39896;SDS011;25567;48.276;14.242;2023-02-01T14:38:34;7.93;;;3.30;;
39896;SDS011;25567;48.276;14.242;2023-02-01T14:52:06;9.25;;;3.22;;
39896;SDS011;25567;48.276;14.242;2023-02-01T14:54:41;8.65;;;2.55;;
39896;SDS011;25567;48.276;14.242;2023-02-01T14:57:20;11.32;;;3.42;;
39896;SDS011;25567;48.276;14.242;2023-02-01T14:59:59;7.93;;;3.20;;
39896;SDS011;25567;48.276;14.242;2023-02-01T15:02:36;9.30;;;3.90;;
39896;SDS011;25567;48.276;14.242;2023-02-01T15:07:51;9.27;;;3.53;;
39896;SDS011;25567;48.276;14.242;2023-02-01T15:10:21;9.27;;;3.28;;
39896;SDS011;25567;48.276;14.242;2023-02-01T15:12:51;7.90;;;3.47;;
39896;SDS011;25567;48.276;14.242;2023-02-01T15:15:20;10.32;;;3.38;;
39896;SDS011;25567;48.276;14.242;2023-02-01T15:17:53;10.07;;;3.17;;
39896;SDS011;25567;48.276;14.242;2023-02-01T15:20:26;10.32;;;2.85;;
39896;SDS011;25567;48.276;14.242;2023-02-01T15:23:01;5.85;;;2.50;;
39896;SDS011;25567;48.276;14.242;2023-02-01T15:25:32;5.15;;;2.40;;
39896;SDS011;25567;48.276;14.242;2023-02-01T15:28:04;10.30;;;2.33;;
39896;SDS011;25567;48.276;14.242;2023-02-01T15:30:38;5.20;;;2.25;;
39896;SDS011;25567;48.276;14.242;2023-02-01T15:33:08;7.28;;;2.40;;
39896;SDS011;25567;48.276;14.242;2023-02-01T15:35:46;10.30;;;2.65;;
39896;SDS011;25567;48.276;14.242;2023-02-01T15:41:00;9.55;;;2.60;;
39896;SDS011;25567;48.276;14.242;2023-02-01T15:43:36;11.02;;;2.40;;
39896;SDS011;25567;48.276;14.242;2023-02-01T15:46:08;6.18;;;2.40;;
39896;SDS011;25567;48.276;14.242;2023-02-01T15:48:41;16.75;;;3.50;;
39896;SDS011;25567;48.276;14.242;2023-02-01T15:51:12;10.75;;;3.58;;
39896;SDS011;25567;48.276;14.242;2023-02-01T15:53:45;11.18;;;2.70;;
39896;SDS011;25567;48.276;14.242;2023-02-01T15:56:16;7.32;;;2.33;;
39896;SDS011;25567;48.276;14.242;2023-02-01T15:58:50;8.93;;;2.30;;
39896;SDS011;25567;48.276;14.242;2023-02-01T16:01:22;9.05;;;2.92;;
39896;SDS011;25567;48.276;14.242;2023-02-01T16:04:02;10.00;;;2.92;;
39896;SDS011;25567;48.276;14.242;2023-02-01T16:06:44;12.48;;;2.97;;
39896;SDS011;25567;48.276;14.242;2023-02-01T16:09:14;13.45;;;2.58;;
39896;SDS011;25567;48.276;14.242;2023-02-01T16:11:49;10.48;;;2.85;;
39896;SDS011;25567;48.276;14.242;2023-02-01T16:14:27;8.88;;;2.50;;
39896;SDS011;25567;48.276;14.242;2023-02-01T16:16:57;13.63;;;3.03;;
39896;SDS011;25567;48.276;14.242;2023-02-01T16:19:25;13.15;;;2.60;;
39896;SDS011;25567;48.276;14.242;2023-02-01T16:21:55;10.13;;;3.10;;
39896;SDS011;25567;48.276;14.242;2023-02-01T16:24:23;13.20;;;3.55;;
39896;SDS011;25567;48.276;14.242;2023-02-01T16:26:53;8.98;;;3.33;;
39896;SDS011;25567;48.276;14.242;2023-02-01T16:29:21;12.90;;;3.28;;
39896;SDS011;25567;48.276;14.242;2023-02-01T16:31:49;13.35;;;3.97;;
39896;SDS011;25567;48.276;14.242;2023-02-01T16:34:18;13.15;;;3.05;;
39896;SDS011;25567;48.276;14.242;2023-02-01T16:36:48;11.00;;;3.03;;
39896;SDS011;25567;48.276;14.242;2023-02-01T16:39:19;8.13;;;2.63;;
39896;SDS011;25567;48.276;14.242;2023-02-01T16:41:49;12.52;;;3.25;;
39896;SDS011;25567;48.276;14.242;2023-02-01T16:44:18;11.75;;;2.45;;
39896;SDS011;25567;48.276;14.242;2023-02-01T16:46:46;8.02;;;2.55;;
39896;SDS011;25567;48.276;14.242;2023-02-01T16:49:23;12.00;;;2.80;;
39896;SDS011;25567;48.276;14.242;2023-02-01T16:51:55;10.90;;;2.33;;
39896;SDS011;25567;48.276;14.242;2023-02-01T16:54:26;7.15;;;2.17;;
39896;SDS011;25567;48.276;14.242;2023-02-01T16:56:54;8.60;;;2.35;;
39896;SDS011;25567;48.276;14.242;2023-02-01T16:59:23;7.60;;;2.38;;
39896;SDS011;25567;48.276;14.242;2023-02-01T17:01:51;8.13;;;2.33;;
39896;SDS011;25567;48.276;14.242;2023-02-01T17:04:20;7.15;;;2.28;;
39896;SDS011;25567;48.276;14.242;2023-02-01T17:06:48;7.93;;;2.33;;
39896;SDS011;25567;48.276;14.242;2023-02-01T17:09:17;12.07;;;2.50;;
39896;SDS011;25567;48.276;14.242;2023-02-01T17:11:46;7.10;;;2.13;;
39896;SDS011;25567;48.276;14.242;2023-02-01T17:14:15;13.75;;;2.42;;
39896;SDS011;25567;48.276;14.242;2023-02-01T17:16:45;11.30;;;2.45;;
39896;SDS011;25567;48.276;14.242;2023-02-01T17:19:16;6.78;;;2.20;;
39896;SDS011;25567;48.276;14.242;2023-02-01T17:21:48;7.68;;;2.45;;
39896;SDS011;25567;48.276;14.242;2023-02-01T17:24:20;10.15;;;2.55;;
39896;SDS011;25567;48.276;14.242;2023-02-01T17:26:56;10.00;;;2.17;;